sensor_id;sensor_type;location;lat;lon;timestamp;temperature;humidity
47813;DHT22;34221;45.296;9.516;2023-11-19T00:00:01;9.50;69.30
47813;DHT22;34221;45.296;9.516;2023-11-19T00:00:22;9.50;69.40
47813;DHT22;34221;45.296;9.516;2023-11-19T00:00:38;9.50;69.50
47813;DHT22;34221;45.296;9.516;2023-11-19T00:00:53;9.50;69.50
47813;DHT22;34221;45.296;9.516;2023-11-19T00:01:07;9.50;69.40
47813;DHT22;34221;45.296;9.516;2023-11-19T00:01:22;9.50;69.40
47813;DHT22;34221;45.296;9.516;2023-11-19T00:01:37;9.50;69.30
47813;DHT22;34221;45.296;9.516;2023-11-19T00:01:52;9.40;69.30
47813;DHT22;34221;45.296;9.516;2023-11-19T00:02:08;9.40;69.40
47813;DHT22;34221;45.296;9.516;2023-11-19T00:02:23;9.40;69.40
47813;DHT22;34221;45.296;9.516;2023-11-19T00:02:39;9.40;69.50
47813;DHT22;34221;45.296;9.516;2023-11-19T00:02:54;9.40;69.60
47813;DHT22;34221;45.296;9.516;2023-11-19T00:03:09;9.40;69.70
47813;DHT22;34221;45.296;9.516;2023-11-19T00:03:25;9.40;69.80
47813;DHT22;34221;45.296;9.516;2023-11-19T00:03:40;9.40;69.80
47813;DHT22;34221;45.296;9.516;2023-11-19T00:03:55;9.40;69.60
47813;DHT22;34221;45.296;9.516;2023-11-19T00:04:10;9.30;69.50
47813;DHT22;34221;45.296;9.516;2023-11-19T00:04:25;9.30;69.70
47813;DHT22;34221;45.296;9.516;2023-11-19T00:04:40;9.30;69.90
47813;DHT22;34221;45.296;9.516;2023-11-19T00:04:54;9.30;70.10
47813;DHT22;34221;45.296;9.516;2023-11-19T00:05:10;9.30;70.20
47813;DHT22;34221;45.296;9.516;2023-11-19T00:05:28;9.30;70.30
47813;DHT22;34221;45.296;9.516;2023-11-19T00:05:43;9.30;70.30
47813;DHT22;34221;45.296;9.516;2023-11-19T00:05:59;9.30;70.40
47813;DHT22;34221;45.296;9.516;2023-11-19T00:06:14;9.30;70.50
47813;DHT22;34221;45.296;9.516;2023-11-19T00:06:29;9.30;70.60
47813;DHT22;34221;45.296;9.516;2023-11-19T00:06:44;9.30;70.80
47813;DHT22;34221;45.296;9.516;2023-11-19T00:06:59;9.30;70.70
47813;DHT22;34221;45.296;9.516;2023-11-19T00:07:18;9.30;70.50
47813;DHT22;34221;45.296;9.516;2023-11-19T00:07:33;9.30;70.30
47813;DHT22;34221;45.296;9.516;2023-11-19T00:07:48;9.30;70.30
47813;DHT22;34221;45.296;9.516;2023-11-19T00:08:03;9.30;70.30
47813;DHT22;34221;45.296;9.516;2023-11-19T00:08:18;9.30;70.30
47813;DHT22;34221;45.296;9.516;2023-11-19T00:08:33;9.30;70.30
47813;DHT22;34221;45.296;9.516;2023-11-19T00:08:49;9.30;70.40
47813;DHT22;34221;45.296;9.516;2023-11-19T00:09:04;9.30;70.40
47813;DHT22;34221;45.296;9.516;2023-11-19T00:09:20;9.30;70.40
47813;DHT22;34221;45.296;9.516;2023-11-19T00:09:35;9.30;70.30
47813;DHT22;34221;45.296;9.516;2023-11-19T00:09:51;9.30;70.30
47813;DHT22;34221;45.296;9.516;2023-11-19T00:10:08;9.40;70.30
47813;DHT22;34221;45.296;9.516;2023-11-19T00:10:24;9.30;70.20
47813;DHT22;34221;45.296;9.516;2023-11-19T00:10:39;9.40;70.30
47813;DHT22;34221;45.296;9.516;2023-11-19T00:10:54;9.30;70.10
47813;DHT22;34221;45.296;9.516;2023-11-19T00:11:09;9.30;70.10
47813;DHT22;34221;45.296;9.516;2023-11-19T00:11:25;9.30;70.10
47813;DHT22;34221;45.296;9.516;2023-11-19T00:11:40;9.30;70.10
47813;DHT22;34221;45.296;9.516;2023-11-19T00:11:55;9.30;70.00
47813;DHT22;34221;45.296;9.516;2023-11-19T00:12:10;9.30;69.90
47813;DHT22;34221;45.296;9.516;2023-11-19T00:12:25;9.30;69.80
47813;DHT22;34221;45.296;9.516;2023-11-19T00:12:45;9.30;69.70
47813;DHT22;34221;45.296;9.516;2023-11-19T00:13:02;9.20;69.60
47813;DHT22;34221;45.296;9.516;2023-11-19T00:13:21;9.20;69.50
47813;DHT22;34221;45.296;9.516;2023-11-19T00:13:37;9.30;69.60
47813;DHT22;34221;45.296;9.516;2023-11-19T00:13:52;9.20;69.60
47813;DHT22;34221;45.296;9.516;2023-11-19T00:14:08;9.20;69.60
47813;DHT22;34221;45.296;9.516;2023-11-19T00:14:23;9.20;69.70
47813;DHT22;34221;45.296;9.516;2023-11-19T00:14:38;9.20;69.70
47813;DHT22;34221;45.296;9.516;2023-11-19T00:14:53;9.20;69.70
47813;DHT22;34221;45.296;9.516;2023-11-19T00:15:09;9.20;69.70
47813;DHT22;34221;45.296;9.516;2023-11-19T00:15:25;9.20;69.80
47813;DHT22;34221;45.296;9.516;2023-11-19T00:15:40;9.20;69.80
47813;DHT22;34221;45.296;9.516;2023-11-19T00:15:55;9.20;69.90
47813;DHT22;34221;45.296;9.516;2023-11-19T00:16:11;9.20;70.10
47813;DHT22;34221;45.296;9.516;2023-11-19T00:16:26;9.20;70.00
47813;DHT22;34221;45.296;9.516;2023-11-19T00:16:42;9.20;70.00
47813;DHT22;34221;45.296;9.516;2023-11-19T00:16:57;9.20;70.00
47813;DHT22;34221;45.296;9.516;2023-11-19T00:17:12;9.20;70.00
47813;DHT22;34221;45.296;9.516;2023-11-19T00:17:27;9.20;70.00
47813;DHT22;34221;45.296;9.516;2023-11-19T00:17:44;9.20;70.20
47813;DHT22;34221;45.296;9.516;2023-11-19T00:18:00;9.20;70.40
47813;DHT22;34221;45.296;9.516;2023-11-19T00:18:19;9.20;70.50
47813;DHT22;34221;45.296;9.516;2023-11-19T00:18:33;9.20;70.70
47813;DHT22;34221;45.296;9.516;2023-11-19T00:18:48;9.20;70.80
47813;DHT22;34221;45.296;9.516;2023-11-19T00:19:04;9.20;70.60
47813;DHT22;34221;45.296;9.516;2023-11-19T00:19:20;9.20;70.40
47813;DHT22;34221;45.296;9.516;2023-11-19T00:19:35;9.20;70.30
47813;DHT22;34221;45.296;9.516;2023-11-19T00:19:50;9.20;70.20
47813;DHT22;34221;45.296;9.516;2023-11-19T00:20:07;9.20;70.10
47813;DHT22;34221;45.296;9.516;2023-11-19T00:20:22;9.20;70.00
47813;DHT22;34221;45.296;9.516;2023-11-19T00:20:37;9.20;69.90
47813;DHT22;34221;45.296;9.516;2023-11-19T00:20:52;9.20;69.90
47813;DHT22;34221;45.296;9.516;2023-11-19T00:21:07;9.20;69.90
47813;DHT22;34221;45.296;9.516;2023-11-19T00:21:24;9.10;69.80
47813;DHT22;34221;45.296;9.516;2023-11-19T00:21:42;9.10;69.90
47813;DHT22;34221;45.296;9.516;2023-11-19T00:21:57;9.10;69.80
47813;DHT22;34221;45.296;9.516;2023-11-19T00:22:17;9.10;69.80
47813;DHT22;34221;45.296;9.516;2023-11-19T00:22:32;9.10;69.90
47813;DHT22;34221;45.296;9.516;2023-11-19T00:22:47;9.10;70.10
47813;DHT22;34221;45.296;9.516;2023-11-19T00:23:05;9.10;70.10
47813;DHT22;34221;45.296;9.516;2023-11-19T00:23:20;9.00;70.10
47813;DHT22;34221;45.296;9.516;2023-11-19T00:23:35;9.00;70.30
47813;DHT22;34221;45.296;9.516;2023-11-19T00:23:50;9.00;70.10
47813;DHT22;34221;45.296;9.516;2023-11-19T00:24:06;9.10;70.20
47813;DHT22;34221;45.296;9.516;2023-11-19T00:24:22;9.00;70.40
47813;DHT22;34221;45.296;9.516;2023-11-19T00:24:37;9.00;70.40
47813;DHT22;34221;45.296;9.516;2023-11-19T00:24:52;9.00;70.50
47813;DHT22;34221;45.296;9.516;2023-11-19T00:25:08;9.00;70.50
47813;DHT22;34221;45.296;9.516;2023-11-19T00:25:23;9.00;70.50
47813;DHT22;34221;45.296;9.516;2023-11-19T00:25:38;9.00;70.50
47813;DHT22;34221;45.296;9.516;2023-11-19T00:25:53;9.00;70.50
47813;DHT22;34221;45.296;9.516;2023-11-19T00:26:08;9.00;70.50
47813;DHT22;34221;45.296;9.516;2023-11-19T00:26:25;9.00;70.50
47813;DHT22;34221;45.296;9.516;2023-11-19T00:26:41;9.00;70.60
47813;DHT22;34221;45.296;9.516;2023-11-19T00:26:57;9.00;70.50
47813;DHT22;34221;45.296;9.516;2023-11-19T00:27:12;8.90;70.50
47813;DHT22;34221;45.296;9.516;2023-11-19T00:27:27;9.00;70.60
47813;DHT22;34221;45.296;9.516;2023-11-19T00:27:42;9.00;70.80
47813;DHT22;34221;45.296;9.516;2023-11-19T00:27:59;9.00;70.90
47813;DHT22;34221;45.296;9.516;2023-11-19T00:28:14;8.90;70.90
47813;DHT22;34221;45.296;9.516;2023-11-19T00:28:29;8.90;70.90
47813;DHT22;34221;45.296;9.516;2023-11-19T00:28:44;8.90;70.90
47813;DHT22;34221;45.296;9.516;2023-11-19T00:28:59;8.90;71.00
47813;DHT22;34221;45.296;9.516;2023-11-19T00:29:14;8.90;71.10
47813;DHT22;34221;45.296;9.516;2023-11-19T00:29:29;8.90;71.20
47813;DHT22;34221;45.296;9.516;2023-11-19T00:29:44;8.80;71.70
47813;DHT22;34221;45.296;9.516;2023-11-19T00:29:59;8.90;71.20
47813;DHT22;34221;45.296;9.516;2023-11-19T00:30:15;8.90;71.30
47813;DHT22;34221;45.296;9.516;2023-11-19T00:30:30;8.90;71.30
47813;DHT22;34221;45.296;9.516;2023-11-19T00:30:45;8.90;71.30
47813;DHT22;34221;45.296;9.516;2023-11-19T00:31:00;8.90;71.40
47813;DHT22;34221;45.296;9.516;2023-11-19T00:31:36;8.80;71.40
47813;DHT22;34221;45.296;9.516;2023-11-19T00:31:51;8.80;71.60
47813;DHT22;34221;45.296;9.516;2023-11-19T00:32:07;8.80;71.70
47813;DHT22;34221;45.296;9.516;2023-11-19T00:32:22;8.80;71.80
47813;DHT22;34221;45.296;9.516;2023-11-19T00:32:37;8.80;71.80
47813;DHT22;34221;45.296;9.516;2023-11-19T00:32:54;8.70;71.90
47813;DHT22;34221;45.296;9.516;2023-11-19T00:33:09;8.70;71.90
47813;DHT22;34221;45.296;9.516;2023-11-19T00:33:24;8.70;71.80
47813;DHT22;34221;45.296;9.516;2023-11-19T00:33:39;8.80;71.90
47813;DHT22;34221;45.296;9.516;2023-11-19T00:33:54;8.80;71.80
47813;DHT22;34221;45.296;9.516;2023-11-19T00:34:09;8.70;71.80
47813;DHT22;34221;45.296;9.516;2023-11-19T00:34:25;8.70;71.90
47813;DHT22;34221;45.296;9.516;2023-11-19T00:34:40;8.70;71.90
47813;DHT22;34221;45.296;9.516;2023-11-19T00:34:58;8.70;72.00
47813;DHT22;34221;45.296;9.516;2023-11-19T00:35:13;8.70;72.10
47813;DHT22;34221;45.296;9.516;2023-11-19T00:35:28;8.70;72.10
47813;DHT22;34221;45.296;9.516;2023-11-19T00:35:43;8.80;72.30
47813;DHT22;34221;45.296;9.516;2023-11-19T00:35:58;8.70;72.40
47813;DHT22;34221;45.296;9.516;2023-11-19T00:36:13;8.70;72.50
47813;DHT22;34221;45.296;9.516;2023-11-19T00:36:28;8.80;72.60
47813;DHT22;34221;45.296;9.516;2023-11-19T00:36:43;8.70;72.40
47813;DHT22;34221;45.296;9.516;2023-11-19T00:36:59;8.80;72.30
47813;DHT22;34221;45.296;9.516;2023-11-19T00:37:14;8.80;72.10
47813;DHT22;34221;45.296;9.516;2023-11-19T00:37:29;8.80;72.00
47813;DHT22;34221;45.296;9.516;2023-11-19T00:37:44;8.80;71.90
47813;DHT22;34221;45.296;9.516;2023-11-19T00:38:02;8.80;71.90
47813;DHT22;34221;45.296;9.516;2023-11-19T00:38:18;8.70;71.80
47813;DHT22;34221;45.296;9.516;2023-11-19T00:38:33;8.70;71.80
47813;DHT22;34221;45.296;9.516;2023-11-19T00:38:48;8.70;71.90
47813;DHT22;34221;45.296;9.516;2023-11-19T00:39:03;8.70;71.90
47813;DHT22;34221;45.296;9.516;2023-11-19T00:39:18;8.70;72.00
47813;DHT22;34221;45.296;9.516;2023-11-19T00:39:34;8.70;71.90
47813;DHT22;34221;45.296;9.516;2023-11-19T00:39:49;8.70;71.90
47813;DHT22;34221;45.296;9.516;2023-11-19T00:40:05;8.70;71.90
47813;DHT22;34221;45.296;9.516;2023-11-19T00:40:20;8.70;71.90
47813;DHT22;34221;45.296;9.516;2023-11-19T00:40:37;8.70;72.00
47813;DHT22;34221;45.296;9.516;2023-11-19T00:40:52;8.70;72.00
47813;DHT22;34221;45.296;9.516;2023-11-19T00:41:07;8.70;72.00
47813;DHT22;34221;45.296;9.516;2023-11-19T00:41:22;8.70;72.10
47813;DHT22;34221;45.296;9.516;2023-11-19T00:41:37;8.70;72.10
47813;DHT22;34221;45.296;9.516;2023-11-19T00:41:52;8.70;72.50
47813;DHT22;34221;45.296;9.516;2023-11-19T00:42:07;8.70;72.80
47813;DHT22;34221;45.296;9.516;2023-11-19T00:42:22;8.80;73.50
47813;DHT22;34221;45.296;9.516;2023-11-19T00:42:38;8.70;72.30
47813;DHT22;34221;45.296;9.516;2023-11-19T00:42:53;8.70;71.90
47813;DHT22;34221;45.296;9.516;2023-11-19T00:43:08;8.70;71.80
47813;DHT22;34221;45.296;9.516;2023-11-19T00:43:23;8.70;71.80
47813;DHT22;34221;45.296;9.516;2023-11-19T00:43:39;8.70;71.90
47813;DHT22;34221;45.296;9.516;2023-11-19T00:43:54;8.70;71.90
47813;DHT22;34221;45.296;9.516;2023-11-19T00:44:10;8.70;71.90
47813;DHT22;34221;45.296;9.516;2023-11-19T00:44:25;8.70;71.90
47813;DHT22;34221;45.296;9.516;2023-11-19T00:44:41;8.70;71.90
47813;DHT22;34221;45.296;9.516;2023-11-19T00:44:56;8.70;72.00
47813;DHT22;34221;45.296;9.516;2023-11-19T00:45:11;8.70;72.10
47813;DHT22;34221;45.296;9.516;2023-11-19T00:45:27;8.70;72.10
47813;DHT22;34221;45.296;9.516;2023-11-19T00:45:42;8.70;72.20
47813;DHT22;34221;45.296;9.516;2023-11-19T00:45:57;8.70;72.20
47813;DHT22;34221;45.296;9.516;2023-11-19T00:46:12;8.70;72.20
47813;DHT22;34221;45.296;9.516;2023-11-19T00:46:28;8.70;72.10
47813;DHT22;34221;45.296;9.516;2023-11-19T00:46:43;8.70;72.00
47813;DHT22;34221;45.296;9.516;2023-11-19T00:46:58;8.70;71.90
47813;DHT22;34221;45.296;9.516;2023-11-19T00:47:14;8.70;71.80
47813;DHT22;34221;45.296;9.516;2023-11-19T00:47:29;8.70;71.80
47813;DHT22;34221;45.296;9.516;2023-11-19T00:47:45;8.70;71.70
47813;DHT22;34221;45.296;9.516;2023-11-19T00:48:00;8.70;71.80
47813;DHT22;34221;45.296;9.516;2023-11-19T00:48:15;8.70;71.90
47813;DHT22;34221;45.296;9.516;2023-11-19T00:48:31;8.70;71.90
47813;DHT22;34221;45.296;9.516;2023-11-19T00:48:46;8.70;71.80
47813;DHT22;34221;45.296;9.516;2023-11-19T00:49:01;8.70;71.80
47813;DHT22;34221;45.296;9.516;2023-11-19T00:49:16;8.70;71.80
47813;DHT22;34221;45.296;9.516;2023-11-19T00:49:31;8.70;71.70
47813;DHT22;34221;45.296;9.516;2023-11-19T00:49:47;8.70;71.60
47813;DHT22;34221;45.296;9.516;2023-11-19T00:50:06;8.70;71.40
47813;DHT22;34221;45.296;9.516;2023-11-19T00:50:26;8.70;71.30
47813;DHT22;34221;45.296;9.516;2023-11-19T00:50:41;8.70;71.40
47813;DHT22;34221;45.296;9.516;2023-11-19T00:50:58;8.70;71.90
47813;DHT22;34221;45.296;9.516;2023-11-19T00:51:14;8.70;72.40
47813;DHT22;34221;45.296;9.516;2023-11-19T00:51:29;8.70;72.50
47813;DHT22;34221;45.296;9.516;2023-11-19T00:51:46;8.70;72.60
47813;DHT22;34221;45.296;9.516;2023-11-19T00:52:01;8.70;72.60
47813;DHT22;34221;45.296;9.516;2023-11-19T00:52:17;8.70;72.60
47813;DHT22;34221;45.296;9.516;2023-11-19T00:52:33;8.70;72.60
47813;DHT22;34221;45.296;9.516;2023-11-19T00:52:48;8.70;72.50
47813;DHT22;34221;45.296;9.516;2023-11-19T00:53:02;8.70;72.50
47813;DHT22;34221;45.296;9.516;2023-11-19T00:53:18;8.70;73.80
47813;DHT22;34221;45.296;9.516;2023-11-19T00:53:33;8.70;74.80
47813;DHT22;34221;45.296;9.516;2023-11-19T00:53:49;8.60;74.90
47813;DHT22;34221;45.296;9.516;2023-11-19T00:54:04;8.60;75.00
47813;DHT22;34221;45.296;9.516;2023-11-19T00:54:19;8.60;75.20
47813;DHT22;34221;45.296;9.516;2023-11-19T00:54:34;8.60;75.40
47813;DHT22;34221;45.296;9.516;2023-11-19T00:54:49;8.60;75.40
47813;DHT22;34221;45.296;9.516;2023-11-19T00:55:05;8.60;75.30
47813;DHT22;34221;45.296;9.516;2023-11-19T00:55:21;8.60;75.20
47813;DHT22;34221;45.296;9.516;2023-11-19T00:55:36;8.60;75.00
47813;DHT22;34221;45.296;9.516;2023-11-19T00:55:51;8.60;74.40
47813;DHT22;34221;45.296;9.516;2023-11-19T00:56:06;8.60;73.70
47813;DHT22;34221;45.296;9.516;2023-11-19T00:56:21;8.60;73.20
47813;DHT22;34221;45.296;9.516;2023-11-19T00:56:36;8.70;73.10
47813;DHT22;34221;45.296;9.516;2023-11-19T00:56:52;8.60;72.80
47813;DHT22;34221;45.296;9.516;2023-11-19T00:57:07;8.60;72.70
47813;DHT22;34221;45.296;9.516;2023-11-19T00:57:22;8.60;72.60
47813;DHT22;34221;45.296;9.516;2023-11-19T00:57:38;8.60;72.60
47813;DHT22;34221;45.296;9.516;2023-11-19T00:57:53;8.60;72.50
47813;DHT22;34221;45.296;9.516;2023-11-19T00:58:11;8.60;72.40
47813;DHT22;34221;45.296;9.516;2023-11-19T00:58:26;8.70;72.40
47813;DHT22;34221;45.296;9.516;2023-11-19T00:58:41;8.60;72.50
47813;DHT22;34221;45.296;9.516;2023-11-19T00:58:57;8.70;72.10
47813;DHT22;34221;45.296;9.516;2023-11-19T00:59:11;8.60;71.80
47813;DHT22;34221;45.296;9.516;2023-11-19T00:59:27;8.60;71.60
47813;DHT22;34221;45.296;9.516;2023-11-19T00:59:43;8.60;71.50
47813;DHT22;34221;45.296;9.516;2023-11-19T00:59:59;8.60;71.40
47813;DHT22;34221;45.296;9.516;2023-11-19T01:00:14;8.70;71.40
47813;DHT22;34221;45.296;9.516;2023-11-19T01:00:33;8.70;71.40
47813;DHT22;34221;45.296;9.516;2023-11-19T01:00:49;8.70;71.40
47813;DHT22;34221;45.296;9.516;2023-11-19T01:01:04;8.70;71.50
47813;DHT22;34221;45.296;9.516;2023-11-19T01:01:20;8.70;71.40
47813;DHT22;34221;45.296;9.516;2023-11-19T01:01:35;8.70;71.20
47813;DHT22;34221;45.296;9.516;2023-11-19T01:01:49;8.70;71.10
47813;DHT22;34221;45.296;9.516;2023-11-19T01:02:05;8.70;71.00
47813;DHT22;34221;45.296;9.516;2023-11-19T01:02:20;8.70;71.10
47813;DHT22;34221;45.296;9.516;2023-11-19T01:02:35;8.70;71.00
47813;DHT22;34221;45.296;9.516;2023-11-19T01:02:50;8.70;70.80
47813;DHT22;34221;45.296;9.516;2023-11-19T01:03:05;8.70;70.50
47813;DHT22;34221;45.296;9.516;2023-11-19T01:03:21;8.70;70.20
47813;DHT22;34221;45.296;9.516;2023-11-19T01:03:36;8.70;70.40
47813;DHT22;34221;45.296;9.516;2023-11-19T01:03:51;8.70;70.60
47813;DHT22;34221;45.296;9.516;2023-11-19T01:04:06;8.70;70.50
47813;DHT22;34221;45.296;9.516;2023-11-19T01:04:21;8.70;70.70
47813;DHT22;34221;45.296;9.516;2023-11-19T01:04:36;8.70;71.00
47813;DHT22;34221;45.296;9.516;2023-11-19T01:04:51;8.70;71.30
47813;DHT22;34221;45.296;9.516;2023-11-19T01:05:08;8.70;71.40
47813;DHT22;34221;45.296;9.516;2023-11-19T01:05:24;8.70;71.60
47813;DHT22;34221;45.296;9.516;2023-11-19T01:05:39;8.70;71.40
47813;DHT22;34221;45.296;9.516;2023-11-19T01:05:54;8.70;71.30
47813;DHT22;34221;45.296;9.516;2023-11-19T01:06:09;8.70;71.10
47813;DHT22;34221;45.296;9.516;2023-11-19T01:06:31;8.70;70.60
47813;DHT22;34221;45.296;9.516;2023-11-19T01:06:47;8.80;70.60
47813;DHT22;34221;45.296;9.516;2023-11-19T01:07:03;8.80;70.70
47813;DHT22;34221;45.296;9.516;2023-11-19T01:07:18;8.80;70.30
47813;DHT22;34221;45.296;9.516;2023-11-19T01:07:33;8.70;70.10
47813;DHT22;34221;45.296;9.516;2023-11-19T01:07:49;8.70;70.00
47813;DHT22;34221;45.296;9.516;2023-11-19T01:08:04;8.70;69.80
47813;DHT22;34221;45.296;9.516;2023-11-19T01:08:20;8.70;69.80
47813;DHT22;34221;45.296;9.516;2023-11-19T01:08:34;8.70;69.90
47813;DHT22;34221;45.296;9.516;2023-11-19T01:08:52;8.70;69.90
47813;DHT22;34221;45.296;9.516;2023-11-19T01:09:08;8.70;70.00
47813;DHT22;34221;45.296;9.516;2023-11-19T01:09:23;8.70;70.70
47813;DHT22;34221;45.296;9.516;2023-11-19T01:09:38;8.70;70.00
47813;DHT22;34221;45.296;9.516;2023-11-19T01:09:53;8.70;70.10
47813;DHT22;34221;45.296;9.516;2023-11-19T01:10:08;8.70;70.10
47813;DHT22;34221;45.296;9.516;2023-11-19T01:10:23;8.70;70.10
47813;DHT22;34221;45.296;9.516;2023-11-19T01:10:40;8.70;70.20
47813;DHT22;34221;45.296;9.516;2023-11-19T01:10:55;8.60;70.20
47813;DHT22;34221;45.296;9.516;2023-11-19T01:11:20;8.70;70.30
47813;DHT22;34221;45.296;9.516;2023-11-19T01:11:38;8.70;70.30
47813;DHT22;34221;45.296;9.516;2023-11-19T01:11:53;8.70;70.30
47813;DHT22;34221;45.296;9.516;2023-11-19T01:12:09;8.60;70.40
47813;DHT22;34221;45.296;9.516;2023-11-19T01:12:25;8.60;70.40
47813;DHT22;34221;45.296;9.516;2023-11-19T01:12:40;8.60;70.40
47813;DHT22;34221;45.296;9.516;2023-11-19T01:12:54;8.60;70.60
47813;DHT22;34221;45.296;9.516;2023-11-19T01:13:09;8.60;70.70
47813;DHT22;34221;45.296;9.516;2023-11-19T01:13:25;8.60;70.70
47813;DHT22;34221;45.296;9.516;2023-11-19T01:13:40;8.60;70.80
47813;DHT22;34221;45.296;9.516;2023-11-19T01:13:55;8.60;71.00
47813;DHT22;34221;45.296;9.516;2023-11-19T01:14:09;8.60;70.90
47813;DHT22;34221;45.296;9.516;2023-11-19T01:14:24;8.60;70.90
47813;DHT22;34221;45.296;9.516;2023-11-19T01:14:40;8.60;71.00
47813;DHT22;34221;45.296;9.516;2023-11-19T01:14:54;8.60;70.90
47813;DHT22;34221;45.296;9.516;2023-11-19T01:15:10;8.60;70.80
47813;DHT22;34221;45.296;9.516;2023-11-19T01:15:25;8.60;70.90
47813;DHT22;34221;45.296;9.516;2023-11-19T01:15:40;8.60;71.00
47813;DHT22;34221;45.296;9.516;2023-11-19T01:15:57;8.60;71.00
47813;DHT22;34221;45.296;9.516;2023-11-19T01:16:12;8.60;71.00
47813;DHT22;34221;45.296;9.516;2023-11-19T01:16:28;8.60;71.10
47813;DHT22;34221;45.296;9.516;2023-11-19T01:16:43;8.60;71.20
47813;DHT22;34221;45.296;9.516;2023-11-19T01:16:59;8.60;71.30
47813;DHT22;34221;45.296;9.516;2023-11-19T01:17:13;8.60;71.40
47813;DHT22;34221;45.296;9.516;2023-11-19T01:17:28;8.50;71.40
47813;DHT22;34221;45.296;9.516;2023-11-19T01:17:46;8.50;71.50
47813;DHT22;34221;45.296;9.516;2023-11-19T01:18:01;8.60;71.60
47813;DHT22;34221;45.296;9.516;2023-11-19T01:18:20;8.60;71.60
47813;DHT22;34221;45.296;9.516;2023-11-19T01:18:35;8.60;71.50
47813;DHT22;34221;45.296;9.516;2023-11-19T01:18:50;8.60;71.50
47813;DHT22;34221;45.296;9.516;2023-11-19T01:19:05;8.50;71.50
47813;DHT22;34221;45.296;9.516;2023-11-19T01:19:22;8.50;71.60
47813;DHT22;34221;45.296;9.516;2023-11-19T01:19:37;8.60;71.70
47813;DHT22;34221;45.296;9.516;2023-11-19T01:19:53;8.50;71.70
47813;DHT22;34221;45.296;9.516;2023-11-19T01:20:09;8.50;71.80
47813;DHT22;34221;45.296;9.516;2023-11-19T01:20:27;8.50;71.80
47813;DHT22;34221;45.296;9.516;2023-11-19T01:20:43;8.50;71.80
47813;DHT22;34221;45.296;9.516;2023-11-19T01:20:58;8.50;71.90
47813;DHT22;34221;45.296;9.516;2023-11-19T01:21:13;8.50;72.00
47813;DHT22;34221;45.296;9.516;2023-11-19T01:21:29;8.50;72.10
47813;DHT22;34221;45.296;9.516;2023-11-19T01:21:44;8.50;72.20
47813;DHT22;34221;45.296;9.516;2023-11-19T01:21:59;8.50;72.30
47813;DHT22;34221;45.296;9.516;2023-11-19T01:22:14;8.50;72.30
47813;DHT22;34221;45.296;9.516;2023-11-19T01:22:29;8.50;72.30
47813;DHT22;34221;45.296;9.516;2023-11-19T01:22:44;8.50;72.40
47813;DHT22;34221;45.296;9.516;2023-11-19T01:22:59;8.50;72.30
47813;DHT22;34221;45.296;9.516;2023-11-19T01:23:14;8.50;72.10
47813;DHT22;34221;45.296;9.516;2023-11-19T01:23:29;8.50;72.10
47813;DHT22;34221;45.296;9.516;2023-11-19T01:23:44;8.50;72.00
47813;DHT22;34221;45.296;9.516;2023-11-19T01:24:00;8.50;71.90
47813;DHT22;34221;45.296;9.516;2023-11-19T01:24:15;8.50;71.80
47813;DHT22;34221;45.296;9.516;2023-11-19T01:24:30;8.50;71.80
47813;DHT22;34221;45.296;9.516;2023-11-19T01:24:45;8.50;71.80
47813;DHT22;34221;45.296;9.516;2023-11-19T01:25:01;8.50;72.00
47813;DHT22;34221;45.296;9.516;2023-11-19T01:25:17;8.50;72.10
47813;DHT22;34221;45.296;9.516;2023-11-19T01:25:33;8.50;72.30
47813;DHT22;34221;45.296;9.516;2023-11-19T01:25:48;8.50;72.60
47813;DHT22;34221;45.296;9.516;2023-11-19T01:26:03;8.50;72.70
47813;DHT22;34221;45.296;9.516;2023-11-19T01:26:20;8.50;72.40
47813;DHT22;34221;45.296;9.516;2023-11-19T01:26:35;8.50;72.20
47813;DHT22;34221;45.296;9.516;2023-11-19T01:26:49;8.50;72.10
47813;DHT22;34221;45.296;9.516;2023-11-19T01:27:04;8.50;72.20
47813;DHT22;34221;45.296;9.516;2023-11-19T01:27:20;8.50;72.30
47813;DHT22;34221;45.296;9.516;2023-11-19T01:27:34;8.50;72.60
47813;DHT22;34221;45.296;9.516;2023-11-19T01:27:50;8.50;72.70
47813;DHT22;34221;45.296;9.516;2023-11-19T01:28:05;8.40;72.60
47813;DHT22;34221;45.296;9.516;2023-11-19T01:28:20;8.40;72.70
47813;DHT22;34221;45.296;9.516;2023-11-19T01:28:34;8.40;73.00
47813;DHT22;34221;45.296;9.516;2023-11-19T01:28:49;8.40;73.20
47813;DHT22;34221;45.296;9.516;2023-11-19T01:29:07;8.40;73.40
47813;DHT22;34221;45.296;9.516;2023-11-19T01:29:22;8.40;73.40
47813;DHT22;34221;45.296;9.516;2023-11-19T01:29:38;8.40;73.40
47813;DHT22;34221;45.296;9.516;2023-11-19T01:29:52;8.40;73.30
47813;DHT22;34221;45.296;9.516;2023-11-19T01:30:08;8.40;73.30
47813;DHT22;34221;45.296;9.516;2023-11-19T01:30:29;8.40;73.10
47813;DHT22;34221;45.296;9.516;2023-11-19T01:30:44;8.40;73.20
47813;DHT22;34221;45.296;9.516;2023-11-19T01:30:59;8.40;73.30
47813;DHT22;34221;45.296;9.516;2023-11-19T01:31:17;8.40;73.40
47813;DHT22;34221;45.296;9.516;2023-11-19T01:31:32;8.40;73.50
47813;DHT22;34221;45.296;9.516;2023-11-19T01:31:48;8.40;73.50
47813;DHT22;34221;45.296;9.516;2023-11-19T01:32:04;8.40;73.70
47813;DHT22;34221;45.296;9.516;2023-11-19T01:32:19;8.40;73.90
47813;DHT22;34221;45.296;9.516;2023-11-19T01:32:34;8.40;74.10
47813;DHT22;34221;45.296;9.516;2023-11-19T01:32:49;8.40;74.20
47813;DHT22;34221;45.296;9.516;2023-11-19T01:33:03;8.30;74.20
47813;DHT22;34221;45.296;9.516;2023-11-19T01:33:19;8.30;74.20
47813;DHT22;34221;45.296;9.516;2023-11-19T01:33:36;8.30;74.40
47813;DHT22;34221;45.296;9.516;2023-11-19T01:33:51;8.30;74.50
47813;DHT22;34221;45.296;9.516;2023-11-19T01:34:06;8.30;74.40
47813;DHT22;34221;45.296;9.516;2023-11-19T01:34:21;8.40;74.50
47813;DHT22;34221;45.296;9.516;2023-11-19T01:34:36;8.30;74.40
47813;DHT22;34221;45.296;9.516;2023-11-19T01:34:51;8.40;74.50
47813;DHT22;34221;45.296;9.516;2023-11-19T01:35:06;8.30;74.40
47813;DHT22;34221;45.296;9.516;2023-11-19T01:35:22;8.30;74.50
47813;DHT22;34221;45.296;9.516;2023-11-19T01:35:38;8.30;74.70
47813;DHT22;34221;45.296;9.516;2023-11-19T01:35:56;8.30;74.90
47813;DHT22;34221;45.296;9.516;2023-11-19T01:36:14;8.40;75.00
47813;DHT22;34221;45.296;9.516;2023-11-19T01:36:29;8.30;74.70
47813;DHT22;34221;45.296;9.516;2023-11-19T01:36:44;8.30;74.50
47813;DHT22;34221;45.296;9.516;2023-11-19T01:37:01;8.30;74.50
47813;DHT22;34221;45.296;9.516;2023-11-19T01:37:15;8.30;74.60
47813;DHT22;34221;45.296;9.516;2023-11-19T01:37:31;8.30;74.70
47813;DHT22;34221;45.296;9.516;2023-11-19T01:37:46;8.30;74.80
47813;DHT22;34221;45.296;9.516;2023-11-19T01:38:01;8.30;74.90
47813;DHT22;34221;45.296;9.516;2023-11-19T01:38:16;8.30;75.00
47813;DHT22;34221;45.296;9.516;2023-11-19T01:38:31;8.30;75.10
47813;DHT22;34221;45.296;9.516;2023-11-19T01:38:46;8.30;75.10
47813;DHT22;34221;45.296;9.516;2023-11-19T01:39:01;8.20;75.10
47813;DHT22;34221;45.296;9.516;2023-11-19T01:39:18;8.20;75.20
47813;DHT22;34221;45.296;9.516;2023-11-19T01:39:34;8.20;75.30
47813;DHT22;34221;45.296;9.516;2023-11-19T01:39:49;8.20;75.30
47813;DHT22;34221;45.296;9.516;2023-11-19T01:40:04;8.20;75.40